createdAt,value
2018-05-27T00:00:04.158Z,77.50
2018-05-27T00:04:57.451Z,77.40
2018-05-27T00:09:50.789Z,77.40
2018-05-27T00:14:44.077Z,77.80
2018-05-27T00:19:37.349Z,78.10
2018-05-27T00:24:30.651Z,78.50
2018-05-27T00:29:23.940Z,78.70
2018-05-27T00:34:17.223Z,78.50
2018-05-27T00:39:10.512Z,78.70
2018-05-27T00:44:04.580Z,79.10
2018-05-27T00:48:57.862Z,79.10
2018-05-27T00:53:59.849Z,79.50
2018-05-27T00:58:53.140Z,79.40
2018-05-27T01:03:46.433Z,80.00
2018-05-27T01:08:40.478Z,80.20
2018-05-27T01:13:33.772Z,80.20
2018-05-27T01:18:27.138Z,80.70
2018-05-27T01:23:20.469Z,81.00
2018-05-27T01:28:13.765Z,80.50
2018-05-27T01:33:07.189Z,80.40
2018-05-27T01:38:00.457Z,79.70
2018-05-27T01:42:53.741Z,80.30
2018-05-27T01:47:47.025Z,80.00
2018-05-27T01:52:40.366Z,80.20
2018-05-27T01:57:34.395Z,81.40
2018-05-27T02:02:27.690Z,81.40
2018-05-27T02:07:21.724Z,82.40
2018-05-27T02:12:15.014Z,82.40
2018-05-27T02:17:08.303Z,82.40
2018-05-27T02:22:01.608Z,81.90
2018-05-27T02:26:54.930Z,81.70
2018-05-27T02:31:48.229Z,81.80
2018-05-27T02:36:41.529Z,81.40
2018-05-27T02:41:34.841Z,81.90
2018-05-27T02:46:28.869Z,80.50
2018-05-27T02:51:22.160Z,80.40
2018-05-27T02:56:15.478Z,81.00
2018-05-27T03:01:09.559Z,81.90
2018-05-27T03:06:02.849Z,81.90
2018-05-27T03:10:56.135Z,82.30
2018-05-27T03:15:50.189Z,82.40
2018-05-27T03:20:43.495Z,82.50
2018-05-27T03:25:36.768Z,82.20
2018-05-27T03:30:30.069Z,82.80
2018-05-27T03:35:24.132Z,83.30
2018-05-27T03:40:17.413Z,83.30
2018-05-27T03:45:10.690Z,82.80
2018-05-27T03:50:03.973Z,82.60
2018-05-27T03:54:57.253Z,83.60
2018-05-27T03:59:50.542Z,83.40
2018-05-27T04:05:02.967Z,81.30
2018-05-27T04:09:57.013Z,80.70
2018-05-27T04:14:50.317Z,80.00
2018-05-27T04:19:43.614Z,79.20
2018-05-27T04:24:37.681Z,78.10
2018-05-27T04:29:30.957Z,78.00
2018-05-27T04:34:24.259Z,79.00
2018-05-27T04:39:17.561Z,79.10
2018-05-27T04:44:10.854Z,79.20
2018-05-27T04:49:04.142Z,79.50
2018-05-27T04:53:57.437Z,79.70
2018-05-27T04:58:50.733Z,80.50
2018-05-27T05:03:44.024Z,80.70
2018-05-27T05:08:38.066Z,82.10
2018-05-27T05:13:31.357Z,82.10
2018-05-27T05:18:24.650Z,83.30
2018-05-27T05:23:17.952Z,84.10
2018-05-27T05:28:11.237Z,83.40
2018-05-27T05:33:05.298Z,83.20
2018-05-27T05:37:58.580Z,83.20
2018-05-27T05:42:51.870Z,82.70
2018-05-27T05:47:45.145Z,80.90
2018-05-27T05:52:38.477Z,77.80
2018-05-27T05:57:31.770Z,74.80
2018-05-27T06:02:25.053Z,73.60
2018-05-27T06:07:18.335Z,72.80
2018-05-27T06:12:11.625Z,72.20
2018-05-27T06:17:04.897Z,71.80
2018-05-27T06:21:58.181Z,71.40
2018-05-27T06:26:51.474Z,68.60
2018-05-27T06:31:44.757Z,68.70
2018-05-27T06:36:38.817Z,69.20
2018-05-27T06:41:32.101Z,69.20
2018-05-27T06:46:25.372Z,69.00
2018-05-27T06:51:18.712Z,70.30
2018-05-27T06:56:11.950Z,71.00
2018-05-27T07:01:05.264Z,69.40
2018-05-27T07:05:58.549Z,68.50
2018-05-27T07:10:51.864Z,71.00
2018-05-27T07:15:45.165Z,71.80
2018-05-27T07:20:39.238Z,72.40
2018-05-27T07:25:32.526Z,72.50
2018-05-27T07:30:25.813Z,70.00
2018-05-27T07:35:19.101Z,69.60
2018-05-27T07:40:12.389Z,67.50
2018-05-27T07:45:05.701Z,67.80
2018-05-27T07:49:59.000Z,65.20
2018-05-27T07:54:52.294Z,66.60
2018-05-27T07:59:45.578Z,67.00
2018-05-27T08:04:38.909Z,64.80
2018-05-27T08:09:32.208Z,64.70
2018-05-27T08:14:25.511Z,64.00
2018-05-27T08:19:18.798Z,65.00
2018-05-27T08:24:12.860Z,65.90
2018-05-27T08:29:06.148Z,65.80
2018-05-27T08:33:59.435Z,65.40
2018-05-27T08:38:52.793Z,64.90
2018-05-27T08:43:46.088Z,63.30
2018-05-27T08:48:39.369Z,61.90
2018-05-27T08:53:32.657Z,60.00
2018-05-27T08:58:26.030Z,58.50
2018-05-27T09:03:19.317Z,57.70
2018-05-27T09:08:13.375Z,56.00
2018-05-27T09:13:06.663Z,56.00
2018-05-27T09:17:59.973Z,54.90
2018-05-27T09:22:54.027Z,55.20
2018-05-27T09:27:47.310Z,55.20
2018-05-27T09:32:41.361Z,53.30
2018-05-27T09:37:34.655Z,53.20
2018-05-27T09:42:27.953Z,51.80
2018-05-27T09:47:21.240Z,52.20
2018-05-27T09:52:14.534Z,51.20
2018-05-27T09:57:07.825Z,52.80
2018-05-27T10:02:01.887Z,51.50
2018-05-27T10:06:55.169Z,51.50
2018-05-27T10:11:48.495Z,52.00
2018-05-27T10:16:41.755Z,51.50
2018-05-27T10:21:35.822Z,49.90
2018-05-27T10:26:29.124Z,49.80
2018-05-27T10:31:23.184Z,48.40
2018-05-27T10:36:16.492Z,48.30
2018-05-27T10:41:10.552Z,49.70
2018-05-27T10:46:03.829Z,49.70
2018-05-27T10:50:57.121Z,48.20
2018-05-27T10:55:50.462Z,46.40
2018-05-27T11:00:43.749Z,45.40
2018-05-27T11:05:37.087Z,42.00
2018-05-27T11:10:30.341Z,42.70
2018-05-27T11:15:23.641Z,44.80
2018-05-27T11:20:17.705Z,43.90
2018-05-27T11:25:10.996Z,43.90
2018-05-27T11:30:04.293Z,44.40
2018-05-27T11:34:58.342Z,43.60
2018-05-27T11:39:51.626Z,43.50
2018-05-27T11:44:44.921Z,42.90
2018-05-27T11:49:38.195Z,41.10
2018-05-27T11:54:31.482Z,40.40
2018-05-27T11:59:24.793Z,40.50
2018-05-27T12:04:18.087Z,39.70
2018-05-27T12:09:11.519Z,40.10
2018-05-27T12:14:04.679Z,40.00
2018-05-27T12:18:57.989Z,39.90
2018-05-27T12:23:52.083Z,40.80
2018-05-27T12:28:46.136Z,40.00
2018-05-27T12:33:39.498Z,40.00
2018-05-27T12:38:32.801Z,39.80
2018-05-27T12:43:26.137Z,40.50
2018-05-27T12:48:19.432Z,40.40
2018-05-27T12:53:12.771Z,40.00
2018-05-27T12:58:06.824Z,39.00
2018-05-27T13:03:00.109Z,39.00
2018-05-27T13:07:53.409Z,40.00
2018-05-27T13:12:47.475Z,39.70
2018-05-27T13:17:40.793Z,39.70
2018-05-27T13:22:34.878Z,38.50
2018-05-27T13:27:28.999Z,39.00
2018-05-27T13:32:22.305Z,39.00
2018-05-27T13:37:15.597Z,38.80
2018-05-27T13:42:08.911Z,38.60
2018-05-27T13:47:03.807Z,37.30
2018-05-27T13:51:57.134Z,37.30
2018-05-27T13:56:50.427Z,37.00
2018-05-27T14:01:43.713Z,36.50
2018-05-27T14:06:37.022Z,36.60
2018-05-27T14:11:30.347Z,36.30
2018-05-27T14:16:23.636Z,36.00
2018-05-27T14:21:16.944Z,36.50
2018-05-27T14:26:10.238Z,41.00
2018-05-27T14:31:03.574Z,41.70
2018-05-27T14:35:56.868Z,42.80
2018-05-27T14:40:50.178Z,43.60
2018-05-27T14:45:43.461Z,45.80
2018-05-27T14:50:37.536Z,46.10
2018-05-27T14:55:30.821Z,46.10
2018-05-27T15:00:24.121Z,46.50
2018-05-27T15:05:17.456Z,46.20
2018-05-27T15:10:10.745Z,45.40
2018-05-27T15:15:04.050Z,45.90
2018-05-27T15:19:57.364Z,46.00
2018-05-27T15:24:50.659Z,44.80
2018-05-27T15:29:43.935Z,44.90
2018-05-27T15:34:37.225Z,46.60
2018-05-27T15:39:30.517Z,46.40
2018-05-27T15:44:23.826Z,46.30
2018-05-27T15:49:17.122Z,46.90
2018-05-27T15:54:10.429Z,46.30
2018-05-27T15:59:03.706Z,46.80
2018-05-27T16:03:57.022Z,47.30
2018-05-27T16:08:51.106Z,47.90
2018-05-27T16:13:44.418Z,47.80
2018-05-27T16:18:37.703Z,49.10
2018-05-27T16:23:31.012Z,49.20
2018-05-27T16:28:24.303Z,48.40
2018-05-27T16:33:17.611Z,49.40
2018-05-27T16:38:11.645Z,48.70
2018-05-27T16:43:04.932Z,48.60
2018-05-27T16:47:58.226Z,49.00
2018-05-27T16:52:51.521Z,49.20
2018-05-27T16:57:44.792Z,48.80
2018-05-27T17:02:38.092Z,49.50
2018-05-27T17:07:32.144Z,50.10
2018-05-27T17:12:25.478Z,50.00
2018-05-27T17:17:18.736Z,50.80
2018-05-27T17:22:12.802Z,50.90
2018-05-27T17:27:06.100Z,50.90
2018-05-27T17:32:00.194Z,51.80
2018-05-27T17:36:53.509Z,51.70
2018-05-27T17:41:46.834Z,52.10
2018-05-27T17:46:40.150Z,52.80
2018-05-27T17:51:34.286Z,53.30
2018-05-27T17:56:29.079Z,53.30
2018-05-27T18:01:22.370Z,53.10
2018-05-27T18:06:15.671Z,53.40
2018-05-27T18:11:08.961Z,53.80
2018-05-27T18:16:02.318Z,53.70
2018-05-27T18:20:55.622Z,53.40
2018-05-27T18:25:48.907Z,53.10
2018-05-27T18:30:42.207Z,53.70
2018-05-27T18:35:36.267Z,54.20
2018-05-27T18:40:29.557Z,54.20
2018-05-27T18:45:23.622Z,55.30
2018-05-27T18:50:16.928Z,55.30
2018-05-27T18:55:10.236Z,54.60
2018-05-27T19:00:03.557Z,55.10
2018-05-27T19:04:56.844Z,55.50
2018-05-27T19:09:50.164Z,55.20
2018-05-27T19:14:44.214Z,56.10
2018-05-27T19:19:37.510Z,56.70
2018-05-27T19:24:30.814Z,56.00
2018-05-27T19:29:24.873Z,56.60
2018-05-27T19:34:18.173Z,56.60
2018-05-27T19:39:12.229Z,56.40
2018-05-27T19:44:05.577Z,56.30
2018-05-27T19:48:58.869Z,58.10
2018-05-27T19:53:52.166Z,56.40
2018-05-27T19:58:45.468Z,56.50
2018-05-27T20:03:38.764Z,56.80
2018-05-27T20:08:32.800Z,56.40
2018-05-27T20:13:26.089Z,56.40
2018-05-27T20:18:19.393Z,56.70
2018-05-27T20:23:12.689Z,56.60
2018-05-27T20:28:06.026Z,57.00
2018-05-27T20:32:59.324Z,57.60
2018-05-27T20:37:52.618Z,56.50
2018-05-27T20:42:46.674Z,57.40
2018-05-27T20:47:39.944Z,57.40
2018-05-27T20:52:33.236Z,57.70
2018-05-27T20:57:26.524Z,57.80
2018-05-27T21:02:19.819Z,58.10
2018-05-27T21:07:13.088Z,58.20
2018-05-27T21:12:06.366Z,58.90
2018-05-27T21:16:59.645Z,59.50
2018-05-27T21:21:52.953Z,60.80
2018-05-27T21:26:46.253Z,62.20
2018-05-27T21:31:39.541Z,63.20
2018-05-27T21:36:32.855Z,64.10
2018-05-27T21:41:26.124Z,64.50
2018-05-27T21:46:19.433Z,65.80
2018-05-27T21:51:13.489Z,67.00
2018-05-27T21:56:06.789Z,67.00
2018-05-27T22:01:00.841Z,67.50
2018-05-27T22:05:54.137Z,67.50
2018-05-27T22:10:47.441Z,69.60
2018-05-27T22:15:40.753Z,70.00
2018-05-27T22:20:34.025Z,70.10
2018-05-27T22:25:28.336Z,70.20
2018-05-27T22:30:21.639Z,70.40
2018-05-27T22:35:14.915Z,71.10
2018-05-27T22:40:08.213Z,71.50
2018-05-27T22:45:01.510Z,72.30
2018-05-27T22:49:55.575Z,72.30
2018-05-27T22:54:48.864Z,72.30
2018-05-27T22:59:42.157Z,72.50
2018-05-27T23:04:36.221Z,72.70
2018-05-27T23:09:29.528Z,72.70
2018-05-27T23:14:22.813Z,71.90
2018-05-27T23:19:16.917Z,72.40
2018-05-27T23:24:10.224Z,72.40
2018-05-27T23:29:03.511Z,72.70
2018-05-27T23:33:56.821Z,73.20
2018-05-27T23:38:50.120Z,72.80
2018-05-27T23:43:44.176Z,74.00
2018-05-27T23:48:37.463Z,74.00
2018-05-27T23:53:30.756Z,74.40
2018-05-27T23:58:24.069Z,74.60
